PILOTS ONLINE: 422    ATC ONLINE: 77

KGEU - Glendale Municipal Airport

Location

City Glendale
Country  United States
Latitude 33° 31' 36" N
Longitude 112° 17' 41" W
Elevation 1071 ft
Type Small Airport

Runways

01/19 7099 ft / 100 ft

Weather

METAR
2014/08/02 01:47
KGEU 020147Z 15008KT 20SM FEW100 SCT180 BKN200 36/14 A2983 RMK TCU DSNT NW-N
TAF
No TAF available

Outbound flights

Inbound flights